sensor_id;sensor_type;location;lat;lon;timestamp;temperature;humidity
6865;DHT22;3471;49.678;8.388;2023-05-10T00:01:43;15.70;99.90
6865;DHT22;3471;49.678;8.388;2023-05-10T00:04:09;15.70;99.90
6865;DHT22;3471;49.678;8.388;2023-05-10T00:06:34;15.70;99.90
6865;DHT22;3471;49.678;8.388;2023-05-10T00:09:00;15.70;99.90
6865;DHT22;3471;49.678;8.388;2023-05-10T00:11:25;15.70;99.90
6865;DHT22;3471;49.678;8.388;2023-05-10T00:13:51;15.70;99.90
6865;DHT22;3471;49.678;8.388;2023-05-10T00:16:17;15.70;99.90
6865;DHT22;3471;49.678;8.388;2023-05-10T00:18:42;15.70;99.90
6865;DHT22;3471;49.678;8.388;2023-05-10T00:21:08;15.70;99.90
6865;DHT22;3471;49.678;8.388;2023-05-10T00:23:33;15.80;99.90
6865;DHT22;3471;49.678;8.388;2023-05-10T00:25:59;15.70;99.90
6865;DHT22;3471;49.678;8.388;2023-05-10T00:28:25;15.70;99.90
6865;DHT22;3471;49.678;8.388;2023-05-10T00:30:52;15.70;99.90
6865;DHT22;3471;49.678;8.388;2023-05-10T00:33:17;15.70;99.90
6865;DHT22;3471;49.678;8.388;2023-05-10T00:35:43;15.60;99.90
6865;DHT22;3471;49.678;8.388;2023-05-10T00:38:09;15.60;99.90
6865;DHT22;3471;49.678;8.388;2023-05-10T00:40:36;15.60;99.90
6865;DHT22;3471;49.678;8.388;2023-05-10T00:43:02;15.60;99.90
6865;DHT22;3471;49.678;8.388;2023-05-10T00:45:29;15.60;99.90
6865;DHT22;3471;49.678;8.388;2023-05-10T00:47:55;15.60;99.90
6865;DHT22;3471;49.678;8.388;2023-05-10T00:50:24;15.60;99.90
6865;DHT22;3471;49.678;8.388;2023-05-10T00:52:50;15.60;99.90
6865;DHT22;3471;49.678;8.388;2023-05-10T00:55:16;15.60;99.90
6865;DHT22;3471;49.678;8.388;2023-05-10T00:57:41;15.60;99.90
6865;DHT22;3471;49.678;8.388;2023-05-10T01:00:08;15.70;99.90
6865;DHT22;3471;49.678;8.388;2023-05-10T01:02:34;15.70;99.90
6865;DHT22;3471;49.678;8.388;2023-05-10T01:05:01;15.70;99.90
6865;DHT22;3471;49.678;8.388;2023-05-10T01:07:29;15.70;99.90
6865;DHT22;3471;49.678;8.388;2023-05-10T01:09:55;15.70;99.90
6865;DHT22;3471;49.678;8.388;2023-05-10T01:12:21;15.70;99.90
6865;DHT22;3471;49.678;8.388;2023-05-10T01:14:47;15.70;99.90
6865;DHT22;3471;49.678;8.388;2023-05-10T01:17:13;15.70;99.90
6865;DHT22;3471;49.678;8.388;2023-05-10T01:19:39;15.70;99.90
6865;DHT22;3471;49.678;8.388;2023-05-10T01:33:14;15.70;99.90
6865;DHT22;3471;49.678;8.388;2023-05-10T01:36:08;15.60;99.90
6865;DHT22;3471;49.678;8.388;2023-05-10T01:38:46;15.70;99.90
6865;DHT22;3471;49.678;8.388;2023-05-10T01:41:29;15.60;99.90
6865;DHT22;3471;49.678;8.388;2023-05-10T01:47:02;15.60;99.90
6865;DHT22;3471;49.678;8.388;2023-05-10T01:49:34;15.60;99.90
6865;DHT22;3471;49.678;8.388;2023-05-10T01:52:08;15.60;99.90
6865;DHT22;3471;49.678;8.388;2023-05-10T01:54:35;15.60;99.90
6865;DHT22;3471;49.678;8.388;2023-05-10T01:57:05;15.50;99.90
6865;DHT22;3471;49.678;8.388;2023-05-10T01:59:34;15.50;99.90
6865;DHT22;3471;49.678;8.388;2023-05-10T02:02:02;15.50;99.90
6865;DHT22;3471;49.678;8.388;2023-05-10T02:04:30;15.50;99.90
6865;DHT22;3471;49.678;8.388;2023-05-10T02:06:56;15.50;99.90
6865;DHT22;3471;49.678;8.388;2023-05-10T02:09:23;15.50;99.90
6865;DHT22;3471;49.678;8.388;2023-05-10T02:11:50;15.50;99.90
6865;DHT22;3471;49.678;8.388;2023-05-10T02:14:16;15.50;99.90
6865;DHT22;3471;49.678;8.388;2023-05-10T02:16:44;15.50;99.90
6865;DHT22;3471;49.678;8.388;2023-05-10T02:19:12;15.50;99.90
6865;DHT22;3471;49.678;8.388;2023-05-10T02:21:40;15.50;99.90
6865;DHT22;3471;49.678;8.388;2023-05-10T02:24:07;15.50;99.90
6865;DHT22;3471;49.678;8.388;2023-05-10T02:26:35;15.50;99.90
6865;DHT22;3471;49.678;8.388;2023-05-10T02:29:05;15.50;99.90
6865;DHT22;3471;49.678;8.388;2023-05-10T02:31:33;15.50;99.90
6865;DHT22;3471;49.678;8.388;2023-05-10T02:34:01;15.50;99.90
6865;DHT22;3471;49.678;8.388;2023-05-10T02:36:28;15.40;99.90
6865;DHT22;3471;49.678;8.388;2023-05-10T02:38:55;15.40;99.90
6865;DHT22;3471;49.678;8.388;2023-05-10T02:41:22;15.40;99.90
6865;DHT22;3471;49.678;8.388;2023-05-10T02:43:50;15.40;99.90
6865;DHT22;3471;49.678;8.388;2023-05-10T02:46:17;15.40;99.90
6865;DHT22;3471;49.678;8.388;2023-05-10T02:48:43;15.40;99.90
6865;DHT22;3471;49.678;8.388;2023-05-10T02:51:12;15.40;99.90
6865;DHT22;3471;49.678;8.388;2023-05-10T02:53:41;15.40;99.90
6865;DHT22;3471;49.678;8.388;2023-05-10T02:56:15;15.30;99.90
6865;DHT22;3471;49.678;8.388;2023-05-10T02:58:45;15.30;99.90
6865;DHT22;3471;49.678;8.388;2023-05-10T03:01:11;15.30;99.90
6865;DHT22;3471;49.678;8.388;2023-05-10T03:03:37;15.30;99.90
6865;DHT22;3471;49.678;8.388;2023-05-10T03:06:02;15.30;99.90
6865;DHT22;3471;49.678;8.388;2023-05-10T03:08:28;15.30;99.90
6865;DHT22;3471;49.678;8.388;2023-05-10T03:13:56;15.30;99.90
6865;DHT22;3471;49.678;8.388;2023-05-10T03:16:29;15.30;99.90
6865;DHT22;3471;49.678;8.388;2023-05-10T03:19:06;15.30;99.90
6865;DHT22;3471;49.678;8.388;2023-05-10T03:21:38;15.30;99.90
6865;DHT22;3471;49.678;8.388;2023-05-10T03:24:07;15.30;99.90
6865;DHT22;3471;49.678;8.388;2023-05-10T03:26:34;15.30;99.90
6865;DHT22;3471;49.678;8.388;2023-05-10T03:29:02;15.30;99.90
6865;DHT22;3471;49.678;8.388;2023-05-10T03:31:29;15.30;99.90
6865;DHT22;3471;49.678;8.388;2023-05-10T03:33:55;15.30;99.90
6865;DHT22;3471;49.678;8.388;2023-05-10T03:36:20;15.30;99.90
6865;DHT22;3471;49.678;8.388;2023-05-10T03:38:46;15.40;99.90
6865;DHT22;3471;49.678;8.388;2023-05-10T03:41:12;15.40;99.90
6865;DHT22;3471;49.678;8.388;2023-05-10T03:43:37;15.40;99.90
6865;DHT22;3471;49.678;8.388;2023-05-10T03:46:05;15.40;99.90
6865;DHT22;3471;49.678;8.388;2023-05-10T03:48:31;15.40;99.90
6865;DHT22;3471;49.678;8.388;2023-05-10T03:50:57;15.40;99.90
6865;DHT22;3471;49.678;8.388;2023-05-10T03:53:23;15.50;99.90
6865;DHT22;3471;49.678;8.388;2023-05-10T03:55:48;15.40;99.90
6865;DHT22;3471;49.678;8.388;2023-05-10T03:58:14;15.40;99.90
6865;DHT22;3471;49.678;8.388;2023-05-10T04:00:40;15.40;99.90
6865;DHT22;3471;49.678;8.388;2023-05-10T04:03:09;15.40;99.90
6865;DHT22;3471;49.678;8.388;2023-05-10T04:05:35;15.40;99.90
6865;DHT22;3471;49.678;8.388;2023-05-10T04:08:01;15.40;99.90
6865;DHT22;3471;49.678;8.388;2023-05-10T04:10:27;15.40;99.90
6865;DHT22;3471;49.678;8.388;2023-05-10T04:12:52;15.40;99.90
6865;DHT22;3471;49.678;8.388;2023-05-10T04:15:18;15.40;99.90
6865;DHT22;3471;49.678;8.388;2023-05-10T04:17:44;15.30;99.90
6865;DHT22;3471;49.678;8.388;2023-05-10T04:20:10;15.30;99.90
6865;DHT22;3471;49.678;8.388;2023-05-10T04:22:35;15.20;99.90
6865;DHT22;3471;49.678;8.388;2023-05-10T04:25:01;15.20;99.90
6865;DHT22;3471;49.678;8.388;2023-05-10T04:27:27;15.20;99.90
6865;DHT22;3471;49.678;8.388;2023-05-10T04:29:52;15.10;99.90
6865;DHT22;3471;49.678;8.388;2023-05-10T04:32:18;15.10;99.90
6865;DHT22;3471;49.678;8.388;2023-05-10T04:34:44;15.00;99.90
6865;DHT22;3471;49.678;8.388;2023-05-10T04:37:09;15.00;99.90
6865;DHT22;3471;49.678;8.388;2023-05-10T04:39:35;15.00;99.90
6865;DHT22;3471;49.678;8.388;2023-05-10T04:42:02;15.00;99.90
6865;DHT22;3471;49.678;8.388;2023-05-10T04:44:28;15.00;99.90
6865;DHT22;3471;49.678;8.388;2023-05-10T04:46:54;15.00;99.90
6865;DHT22;3471;49.678;8.388;2023-05-10T04:49:20;15.00;99.90
6865;DHT22;3471;49.678;8.388;2023-05-10T04:51:46;15.00;99.90
6865;DHT22;3471;49.678;8.388;2023-05-10T04:54:11;15.10;99.90
6865;DHT22;3471;49.678;8.388;2023-05-10T04:56:37;15.10;99.90
6865;DHT22;3471;49.678;8.388;2023-05-10T04:59:03;15.10;99.90
6865;DHT22;3471;49.678;8.388;2023-05-10T05:01:29;15.10;99.90
6865;DHT22;3471;49.678;8.388;2023-05-10T05:03:55;15.10;99.90
6865;DHT22;3471;49.678;8.388;2023-05-10T05:06:20;15.10;99.90
6865;DHT22;3471;49.678;8.388;2023-05-10T05:08:46;15.10;99.90
6865;DHT22;3471;49.678;8.388;2023-05-10T05:11:12;15.20;99.90
6865;DHT22;3471;49.678;8.388;2023-05-10T05:13:37;15.20;99.90
6865;DHT22;3471;49.678;8.388;2023-05-10T05:16:04;15.20;99.90
6865;DHT22;3471;49.678;8.388;2023-05-10T05:18:30;15.10;99.90
6865;DHT22;3471;49.678;8.388;2023-05-10T05:20:56;15.10;99.90
6865;DHT22;3471;49.678;8.388;2023-05-10T05:23:21;15.10;99.90
6865;DHT22;3471;49.678;8.388;2023-05-10T05:25:53;15.10;99.90
6865;DHT22;3471;49.678;8.388;2023-05-10T05:28:22;15.10;99.90
6865;DHT22;3471;49.678;8.388;2023-05-10T05:30:47;15.10;99.90
6865;DHT22;3471;49.678;8.388;2023-05-10T05:33:14;15.10;99.90
6865;DHT22;3471;49.678;8.388;2023-05-10T05:35:41;15.10;99.90
6865;DHT22;3471;49.678;8.388;2023-05-10T05:38:06;15.20;99.90
6865;DHT22;3471;49.678;8.388;2023-05-10T05:40:32;15.20;99.90
6865;DHT22;3471;49.678;8.388;2023-05-10T05:42:57;15.30;99.90
6865;DHT22;3471;49.678;8.388;2023-05-10T05:45:23;15.30;99.90
6865;DHT22;3471;49.678;8.388;2023-05-10T05:47:48;15.30;99.90
6865;DHT22;3471;49.678;8.388;2023-05-10T05:50:14;15.30;99.90
6865;DHT22;3471;49.678;8.388;2023-05-10T05:52:39;15.30;99.90
6865;DHT22;3471;49.678;8.388;2023-05-10T05:55:05;15.40;99.90
6865;DHT22;3471;49.678;8.388;2023-05-10T05:57:31;15.50;99.90
6865;DHT22;3471;49.678;8.388;2023-05-10T05:59:56;15.60;99.90
6865;DHT22;3471;49.678;8.388;2023-05-10T06:02:22;15.70;99.90
6865;DHT22;3471;49.678;8.388;2023-05-10T06:04:48;15.80;99.90
6865;DHT22;3471;49.678;8.388;2023-05-10T06:07:13;15.90;99.90
6865;DHT22;3471;49.678;8.388;2023-05-10T06:09:39;15.90;99.90
6865;DHT22;3471;49.678;8.388;2023-05-10T06:12:04;16.00;99.90
6865;DHT22;3471;49.678;8.388;2023-05-10T06:14:30;16.00;99.90
6865;DHT22;3471;49.678;8.388;2023-05-10T06:16:56;16.00;99.90
6865;DHT22;3471;49.678;8.388;2023-05-10T06:19:21;16.00;99.90
6865;DHT22;3471;49.678;8.388;2023-05-10T06:21:47;16.10;99.90
6865;DHT22;3471;49.678;8.388;2023-05-10T06:24:12;16.10;99.90
6865;DHT22;3471;49.678;8.388;2023-05-10T06:26:38;16.20;99.90
6865;DHT22;3471;49.678;8.388;2023-05-10T06:29:03;16.20;99.90
6865;DHT22;3471;49.678;8.388;2023-05-10T06:31:29;16.20;99.90
6865;DHT22;3471;49.678;8.388;2023-05-10T06:33:55;16.10;99.90
6865;DHT22;3471;49.678;8.388;2023-05-10T06:36:20;16.10;99.90
6865;DHT22;3471;49.678;8.388;2023-05-10T06:38:46;16.10;99.90
6865;DHT22;3471;49.678;8.388;2023-05-10T06:41:11;16.20;99.90
6865;DHT22;3471;49.678;8.388;2023-05-10T06:43:37;16.30;99.90
6865;DHT22;3471;49.678;8.388;2023-05-10T06:46:05;16.30;99.90
6865;DHT22;3471;49.678;8.388;2023-05-10T06:48:31;16.40;99.90
6865;DHT22;3471;49.678;8.388;2023-05-10T06:50:57;16.40;99.90
6865;DHT22;3471;49.678;8.388;2023-05-10T06:53:23;16.40;99.90
6865;DHT22;3471;49.678;8.388;2023-05-10T06:55:49;16.50;99.90
6865;DHT22;3471;49.678;8.388;2023-05-10T06:58:15;16.50;99.90
6865;DHT22;3471;49.678;8.388;2023-05-10T07:00:42;16.60;99.90
6865;DHT22;3471;49.678;8.388;2023-05-10T07:03:09;16.60;99.90
6865;DHT22;3471;49.678;8.388;2023-05-10T07:05:35;16.60;99.90
6865;DHT22;3471;49.678;8.388;2023-05-10T07:08:01;16.60;99.90
6865;DHT22;3471;49.678;8.388;2023-05-10T07:10:27;16.60;99.90
6865;DHT22;3471;49.678;8.388;2023-05-10T07:12:52;16.70;99.90
6865;DHT22;3471;49.678;8.388;2023-05-10T07:15:18;16.80;99.90
6865;DHT22;3471;49.678;8.388;2023-05-10T07:17:43;16.90;99.90
6865;DHT22;3471;49.678;8.388;2023-05-10T07:20:09;16.90;99.90
6865;DHT22;3471;49.678;8.388;2023-05-10T07:22:35;16.90;99.90
6865;DHT22;3471;49.678;8.388;2023-05-10T07:25:00;16.90;99.90
6865;DHT22;3471;49.678;8.388;2023-05-10T07:27:26;16.90;99.90
6865;DHT22;3471;49.678;8.388;2023-05-10T07:29:52;16.90;99.90
6865;DHT22;3471;49.678;8.388;2023-05-10T07:32:17;16.80;99.90
6865;DHT22;3471;49.678;8.388;2023-05-10T07:34:43;16.80;99.90
6865;DHT22;3471;49.678;8.388;2023-05-10T07:37:08;16.70;99.90
6865;DHT22;3471;49.678;8.388;2023-05-10T07:39:34;16.70;99.90
6865;DHT22;3471;49.678;8.388;2023-05-10T07:41:59;16.70;99.90
6865;DHT22;3471;49.678;8.388;2023-05-10T07:44:25;16.70;99.90
6865;DHT22;3471;49.678;8.388;2023-05-10T07:46:51;16.80;99.90
6865;DHT22;3471;49.678;8.388;2023-05-10T07:49:16;16.80;99.90
6865;DHT22;3471;49.678;8.388;2023-05-10T07:51:42;16.80;99.90
6865;DHT22;3471;49.678;8.388;2023-05-10T07:54:08;16.90;99.90
6865;DHT22;3471;49.678;8.388;2023-05-10T07:56:33;17.00;99.90
6865;DHT22;3471;49.678;8.388;2023-05-10T07:58:59;17.00;99.90
6865;DHT22;3471;49.678;8.388;2023-05-10T08:01:25;17.00;99.90
6865;DHT22;3471;49.678;8.388;2023-05-10T08:03:52;17.10;99.90
6865;DHT22;3471;49.678;8.388;2023-05-10T08:06:19;17.20;99.90
6865;DHT22;3471;49.678;8.388;2023-05-10T08:08:46;17.30;99.90
6865;DHT22;3471;49.678;8.388;2023-05-10T08:11:15;17.40;99.90
6865;DHT22;3471;49.678;8.388;2023-05-10T08:13:41;17.50;99.90
6865;DHT22;3471;49.678;8.388;2023-05-10T08:16:07;17.50;99.90
6865;DHT22;3471;49.678;8.388;2023-05-10T08:18:32;17.60;99.90
6865;DHT22;3471;49.678;8.388;2023-05-10T08:20:58;17.70;99.90
6865;DHT22;3471;49.678;8.388;2023-05-10T08:23:23;17.80;99.90
6865;DHT22;3471;49.678;8.388;2023-05-10T08:25:49;18.00;99.90
6865;DHT22;3471;49.678;8.388;2023-05-10T08:28:15;18.00;99.90
6865;DHT22;3471;49.678;8.388;2023-05-10T08:30:40;18.10;99.90
6865;DHT22;3471;49.678;8.388;2023-05-10T08:33:06;18.30;99.90
6865;DHT22;3471;49.678;8.388;2023-05-10T08:35:31;18.40;99.90
6865;DHT22;3471;49.678;8.388;2023-05-10T08:37:58;18.60;99.90
6865;DHT22;3471;49.678;8.388;2023-05-10T08:40:24;18.60;99.90
6865;DHT22;3471;49.678;8.388;2023-05-10T08:43:03;18.70;99.90
6865;DHT22;3471;49.678;8.388;2023-05-10T08:45:32;18.70;99.90
6865;DHT22;3471;49.678;8.388;2023-05-10T08:48:07;18.70;99.90
6865;DHT22;3471;49.678;8.388;2023-05-10T08:50:41;18.80;99.90
6865;DHT22;3471;49.678;8.388;2023-05-10T08:53:13;18.90;99.90
6865;DHT22;3471;49.678;8.388;2023-05-10T08:55:39;18.90;99.90
6865;DHT22;3471;49.678;8.388;2023-05-10T08:58:06;18.80;99.90
6865;DHT22;3471;49.678;8.388;2023-05-10T09:00:32;18.60;99.90
6865;DHT22;3471;49.678;8.388;2023-05-10T09:02:58;18.50;99.90
6865;DHT22;3471;49.678;8.388;2023-05-10T09:05:24;18.40;99.90
6865;DHT22;3471;49.678;8.388;2023-05-10T09:07:50;18.30;99.90
6865;DHT22;3471;49.678;8.388;2023-05-10T09:10:16;18.20;99.90
6865;DHT22;3471;49.678;8.388;2023-05-10T09:12:43;18.10;99.90
6865;DHT22;3471;49.678;8.388;2023-05-10T09:15:10;18.30;99.90
6865;DHT22;3471;49.678;8.388;2023-05-10T09:17:38;18.50;99.90
6865;DHT22;3471;49.678;8.388;2023-05-10T09:20:04;18.60;99.90
6865;DHT22;3471;49.678;8.388;2023-05-10T09:22:31;18.70;99.90
6865;DHT22;3471;49.678;8.388;2023-05-10T09:27:35;18.80;99.90
6865;DHT22;3471;49.678;8.388;2023-05-10T09:30:02;19.00;99.90
6865;DHT22;3471;49.678;8.388;2023-05-10T09:32:42;19.00;99.90
6865;DHT22;3471;49.678;8.388;2023-05-10T09:35:09;19.10;99.90
6865;DHT22;3471;49.678;8.388;2023-05-10T09:37:35;19.20;99.90
6865;DHT22;3471;49.678;8.388;2023-05-10T09:40:04;19.30;99.90
6865;DHT22;3471;49.678;8.388;2023-05-10T09:42:31;19.20;99.90
6865;DHT22;3471;49.678;8.388;2023-05-10T09:45:01;19.40;99.90
6865;DHT22;3471;49.678;8.388;2023-05-10T09:47:27;19.40;99.90
6865;DHT22;3471;49.678;8.388;2023-05-10T09:49:53;19.50;99.90
6865;DHT22;3471;49.678;8.388;2023-05-10T09:52:23;19.60;99.90
6865;DHT22;3471;49.678;8.388;2023-05-10T09:54:54;19.60;99.90
6865;DHT22;3471;49.678;8.388;2023-05-10T09:57:21;19.60;99.90
6865;DHT22;3471;49.678;8.388;2023-05-10T09:59:47;19.70;99.90
6865;DHT22;3471;49.678;8.388;2023-05-10T10:02:14;19.80;99.90
6865;DHT22;3471;49.678;8.388;2023-05-10T10:04:40;20.00;99.90
6865;DHT22;3471;49.678;8.388;2023-05-10T10:07:06;20.00;99.90
6865;DHT22;3471;49.678;8.388;2023-05-10T10:09:33;20.10;99.90
6865;DHT22;3471;49.678;8.388;2023-05-10T10:12:02;20.00;99.90
6865;DHT22;3471;49.678;8.388;2023-05-10T10:14:29;20.00;99.90
6865;DHT22;3471;49.678;8.388;2023-05-10T10:16:55;19.90;99.90
6865;DHT22;3471;49.678;8.388;2023-05-10T10:19:21;19.90;99.90
6865;DHT22;3471;49.678;8.388;2023-05-10T10:21:48;19.70;99.90
6865;DHT22;3471;49.678;8.388;2023-05-10T10:24:14;19.70;99.90
6865;DHT22;3471;49.678;8.388;2023-05-10T10:26:40;19.70;99.90
6865;DHT22;3471;49.678;8.388;2023-05-10T10:32:10;19.70;99.90
6865;DHT22;3471;49.678;8.388;2023-05-10T10:34:38;19.90;99.90
6865;DHT22;3471;49.678;8.388;2023-05-10T10:37:05;20.30;99.90
6865;DHT22;3471;49.678;8.388;2023-05-10T10:39:32;20.50;99.90
6865;DHT22;3471;49.678;8.388;2023-05-10T10:41:58;20.60;99.90
6865;DHT22;3471;49.678;8.388;2023-05-10T10:52:43;20.90;99.90
6865;DHT22;3471;49.678;8.388;2023-05-10T10:57:55;20.70;99.90
6865;DHT22;3471;49.678;8.388;2023-05-10T11:00:34;20.50;99.90
6865;DHT22;3471;49.678;8.388;2023-05-10T11:03:04;20.40;99.90
6865;DHT22;3471;49.678;8.388;2023-05-10T11:05:40;20.60;99.90
6865;DHT22;3471;49.678;8.388;2023-05-10T11:08:12;20.70;99.90
6865;DHT22;3471;49.678;8.388;2023-05-10T11:10:38;20.70;99.90
6865;DHT22;3471;49.678;8.388;2023-05-10T11:13:09;20.70;99.90
6865;DHT22;3471;49.678;8.388;2023-05-10T11:15:39;20.70;99.90
6865;DHT22;3471;49.678;8.388;2023-05-10T11:18:20;20.70;99.90
6865;DHT22;3471;49.678;8.388;2023-05-10T11:23:20;20.90;99.90
6865;DHT22;3471;49.678;8.388;2023-05-10T11:25:48;21.00;99.90
6865;DHT22;3471;49.678;8.388;2023-05-10T11:28:16;21.10;99.90
6865;DHT22;3471;49.678;8.388;2023-05-10T11:30:43;21.10;99.90
6865;DHT22;3471;49.678;8.388;2023-05-10T11:33:14;21.10;99.90
6865;DHT22;3471;49.678;8.388;2023-05-10T11:35:41;21.20;99.90
6865;DHT22;3471;49.678;8.388;2023-05-10T11:38:11;21.30;99.90
6865;DHT22;3471;49.678;8.388;2023-05-10T11:40:37;21.40;99.90
6865;DHT22;3471;49.678;8.388;2023-05-10T11:43:04;21.50;99.90
6865;DHT22;3471;49.678;8.388;2023-05-10T11:45:34;21.60;99.90
6865;DHT22;3471;49.678;8.388;2023-05-10T11:48:01;21.80;99.90
6865;DHT22;3471;49.678;8.388;2023-05-10T11:50:27;21.90;99.90
6865;DHT22;3471;49.678;8.388;2023-05-10T11:52:56;22.00;99.90
6865;DHT22;3471;49.678;8.388;2023-05-10T11:55:23;22.10;99.90
6865;DHT22;3471;49.678;8.388;2023-05-10T11:57:53;22.10;99.90
6865;DHT22;3471;49.678;8.388;2023-05-10T12:00:19;22.20;99.90
6865;DHT22;3471;49.678;8.388;2023-05-10T12:02:45;22.30;99.90
6865;DHT22;3471;49.678;8.388;2023-05-10T12:05:12;22.40;99.90
6865;DHT22;3471;49.678;8.388;2023-05-10T12:07:38;22.40;99.90
6865;DHT22;3471;49.678;8.388;2023-05-10T12:10:04;22.40;99.90
6865;DHT22;3471;49.678;8.388;2023-05-10T12:12:43;22.20;99.90
6865;DHT22;3471;49.678;8.388;2023-05-10T12:15:19;22.10;99.90
6865;DHT22;3471;49.678;8.388;2023-05-10T12:17:46;22.00;99.90
6865;DHT22;3471;49.678;8.388;2023-05-10T12:20:21;21.80;99.90
6865;DHT22;3471;49.678;8.388;2023-05-10T12:22:53;21.70;99.90
6865;DHT22;3471;49.678;8.388;2023-05-10T12:25:21;21.50;99.90
6865;DHT22;3471;49.678;8.388;2023-05-10T12:27:56;21.50;99.90
6865;DHT22;3471;49.678;8.388;2023-05-10T12:30:27;21.40;99.90
6865;DHT22;3471;49.678;8.388;2023-05-10T12:32:54;21.40;99.90
6865;DHT22;3471;49.678;8.388;2023-05-10T12:35:24;21.30;99.90
6865;DHT22;3471;49.678;8.388;2023-05-10T12:37:50;21.30;99.90
6865;DHT22;3471;49.678;8.388;2023-05-10T12:40:16;21.20;99.90
6865;DHT22;3471;49.678;8.388;2023-05-10T12:42:42;21.20;99.90
6865;DHT22;3471;49.678;8.388;2023-05-10T12:45:09;20.90;99.90
6865;DHT22;3471;49.678;8.388;2023-05-10T12:47:35;20.80;99.90
6865;DHT22;3471;49.678;8.388;2023-05-10T12:50:01;20.60;99.90
6865;DHT22;3471;49.678;8.388;2023-05-10T12:52:28;20.50;99.90
6865;DHT22;3471;49.678;8.388;2023-05-10T12:54:54;20.50;99.90
6865;DHT22;3471;49.678;8.388;2023-05-10T12:57:20;20.60;99.90
6865;DHT22;3471;49.678;8.388;2023-05-10T12:59:46;20.80;99.90
6865;DHT22;3471;49.678;8.388;2023-05-10T13:02:11;21.00;99.90
6865;DHT22;3471;49.678;8.388;2023-05-10T13:04:37;21.30;99.90
6865;DHT22;3471;49.678;8.388;2023-05-10T13:07:06;21.60;99.90
6865;DHT22;3471;49.678;8.388;2023-05-10T13:09:31;22.00;99.90
6865;DHT22;3471;49.678;8.388;2023-05-10T13:11:57;22.30;99.90
6865;DHT22;3471;49.678;8.388;2023-05-10T13:14:23;22.60;99.90
6865;DHT22;3471;49.678;8.388;2023-05-10T13:16:48;22.90;99.90
6865;DHT22;3471;49.678;8.388;2023-05-10T13:19:14;23.10;99.90
6865;DHT22;3471;49.678;8.388;2023-05-10T13:21:40;23.20;99.90
6865;DHT22;3471;49.678;8.388;2023-05-10T13:24:09;23.30;99.90
6865;DHT22;3471;49.678;8.388;2023-05-10T13:26:35;23.50;99.90
6865;DHT22;3471;49.678;8.388;2023-05-10T13:29:01;23.40;99.90
6865;DHT22;3471;49.678;8.388;2023-05-10T13:31:27;23.30;99.90
6865;DHT22;3471;49.678;8.388;2023-05-10T13:33:53;23.00;99.90
6865;DHT22;3471;49.678;8.388;2023-05-10T13:36:18;22.80;99.90
6865;DHT22;3471;49.678;8.388;2023-05-10T13:38:44;22.60;99.90
6865;DHT22;3471;49.678;8.388;2023-05-10T13:41:10;22.60;99.90
6865;DHT22;3471;49.678;8.388;2023-05-10T13:43:35;22.60;99.90
6865;DHT22;3471;49.678;8.388;2023-05-10T13:46:01;22.70;99.90
6865;DHT22;3471;49.678;8.388;2023-05-10T13:48:28;22.70;99.90
6865;DHT22;3471;49.678;8.388;2023-05-10T13:50:53;22.70;99.90
6865;DHT22;3471;49.678;8.388;2023-05-10T13:53:19;22.80;99.90
6865;DHT22;3471;49.678;8.388;2023-05-10T13:55:45;22.90;99.90
6865;DHT22;3471;49.678;8.388;2023-05-10T13:58:10;23.00;99.90
6865;DHT22;3471;49.678;8.388;2023-05-10T14:00:36;23.00;99.90
6865;DHT22;3471;49.678;8.388;2023-05-10T14:03:01;23.00;99.90
6865;DHT22;3471;49.678;8.388;2023-05-10T14:05:27;22.80;99.90
6865;DHT22;3471;49.678;8.388;2023-05-10T14:07:53;22.90;99.90
6865;DHT22;3471;49.678;8.388;2023-05-10T14:10:19;22.90;99.90
6865;DHT22;3471;49.678;8.388;2023-05-10T14:12:45;23.10;99.90
6865;DHT22;3471;49.678;8.388;2023-05-10T14:15:10;23.00;99.90
6865;DHT22;3471;49.678;8.388;2023-05-10T14:17:36;23.20;99.90
6865;DHT22;3471;49.678;8.388;2023-05-10T14:20:02;23.30;99.90
6865;DHT22;3471;49.678;8.388;2023-05-10T14:22:29;23.40;99.90
6865;DHT22;3471;49.678;8.388;2023-05-10T14:24:54;23.60;99.90
6865;DHT22;3471;49.678;8.388;2023-05-10T14:27:20;23.70;99.90
6865;DHT22;3471;49.678;8.388;2023-05-10T14:29:47;23.70;99.90
6865;DHT22;3471;49.678;8.388;2023-05-10T14:32:13;23.90;99.90
6865;DHT22;3471;49.678;8.388;2023-05-10T14:34:38;23.90;99.90
6865;DHT22;3471;49.678;8.388;2023-05-10T14:37:04;24.00;99.90
6865;DHT22;3471;49.678;8.388;2023-05-10T14:39:29;24.00;99.90
6865;DHT22;3471;49.678;8.388;2023-05-10T14:41:55;23.80;99.60
6865;DHT22;3471;49.678;8.388;2023-05-10T14:44:21;23.50;99.90
6865;DHT22;3471;49.678;8.388;2023-05-10T14:46:47;23.20;99.90
6865;DHT22;3471;49.678;8.388;2023-05-10T14:49:13;23.00;99.90
6865;DHT22;3471;49.678;8.388;2023-05-10T14:51:39;23.00;99.90
6865;DHT22;3471;49.678;8.388;2023-05-10T14:54:04;23.10;99.90
6865;DHT22;3471;49.678;8.388;2023-05-10T14:56:31;23.20;99.90
6865;DHT22;3471;49.678;8.388;2023-05-10T14:58:56;23.20;99.90
6865;DHT22;3471;49.678;8.388;2023-05-10T15:01:22;23.30;99.90
6865;DHT22;3471;49.678;8.388;2023-05-10T15:03:48;23.30;99.90
6865;DHT22;3471;49.678;8.388;2023-05-10T15:06:14;23.30;99.20
6865;DHT22;3471;49.678;8.388;2023-05-10T15:08:41;23.30;99.20
6865;DHT22;3471;49.678;8.388;2023-05-10T15:11:06;23.40;99.30
6865;DHT22;3471;49.678;8.388;2023-05-10T15:13:32;23.40;99.40
6865;DHT22;3471;49.678;8.388;2023-05-10T15:15:58;23.40;99.10
6865;DHT22;3471;49.678;8.388;2023-05-10T15:18:23;23.10;98.50
6865;DHT22;3471;49.678;8.388;2023-05-10T15:20:49;23.00;99.80
6865;DHT22;3471;49.678;8.388;2023-05-10T15:23:14;22.80;98.70
6865;DHT22;3471;49.678;8.388;2023-05-10T15:25:40;22.70;99.10
6865;DHT22;3471;49.678;8.388;2023-05-10T15:28:06;22.80;99.60
6865;DHT22;3471;49.678;8.388;2023-05-10T15:30:31;22.80;98.50
6865;DHT22;3471;49.678;8.388;2023-05-10T15:32:57;22.80;98.10
6865;DHT22;3471;49.678;8.388;2023-05-10T15:35:23;22.80;98.50
6865;DHT22;3471;49.678;8.388;2023-05-10T15:37:48;22.80;98.30
6865;DHT22;3471;49.678;8.388;2023-05-10T15:40:14;22.80;98.70
6865;DHT22;3471;49.678;8.388;2023-05-10T15:42:40;22.90;97.60
6865;DHT22;3471;49.678;8.388;2023-05-10T15:45:06;23.00;98.60
6865;DHT22;3471;49.678;8.388;2023-05-10T15:47:32;23.20;97.80
6865;DHT22;3471;49.678;8.388;2023-05-10T15:49:58;23.20;98.20
6865;DHT22;3471;49.678;8.388;2023-05-10T15:52:24;23.30;97.90
6865;DHT22;3471;49.678;8.388;2023-05-10T15:54:50;23.40;97.80
6865;DHT22;3471;49.678;8.388;2023-05-10T15:57:15;23.50;98.10
6865;DHT22;3471;49.678;8.388;2023-05-10T15:59:41;23.60;97.40
6865;DHT22;3471;49.678;8.388;2023-05-10T16:02:08;23.80;97.20
6865;DHT22;3471;49.678;8.388;2023-05-10T16:04:35;23.90;97.20
6865;DHT22;3471;49.678;8.388;2023-05-10T16:07:02;23.90;95.80
6865;DHT22;3471;49.678;8.388;2023-05-10T16:09:27;23.70;95.60
6865;DHT22;3471;49.678;8.388;2023-05-10T16:11:53;23.60;95.50
6865;DHT22;3471;49.678;8.388;2023-05-10T16:14:19;23.50;94.70
6865;DHT22;3471;49.678;8.388;2023-05-10T16:16:47;23.20;95.50
6865;DHT22;3471;49.678;8.388;2023-05-10T16:19:13;23.00;95.90
6865;DHT22;3471;49.678;8.388;2023-05-10T16:21:38;22.80;96.10
6865;DHT22;3471;49.678;8.388;2023-05-10T16:24:04;22.60;96.20
6865;DHT22;3471;49.678;8.388;2023-05-10T16:26:30;22.50;97.50
6865;DHT22;3471;49.678;8.388;2023-05-10T16:28:56;22.40;97.40
6865;DHT22;3471;49.678;8.388;2023-05-10T16:31:21;22.30;96.20
6865;DHT22;3471;49.678;8.388;2023-05-10T16:33:47;22.10;96.20
6865;DHT22;3471;49.678;8.388;2023-05-10T16:36:13;21.90;97.10